createdAt,value
2018-05-21T00:01:51.242Z,81.50
2018-05-21T00:04:19.061Z,81.30
2018-05-21T00:06:46.045Z,81.30
2018-05-21T00:09:13.801Z,81.60
2018-05-21T00:11:40.835Z,81.50
2018-05-21T00:14:08.101Z,81.70
2018-05-21T00:16:35.125Z,81.90
2018-05-21T00:19:02.116Z,81.80
2018-05-21T00:21:29.120Z,82.40
2018-05-21T00:23:56.136Z,82.50
2018-05-21T00:26:23.169Z,82.90
2018-05-21T00:28:50.901Z,83.70
2018-05-21T00:31:17.909Z,82.80
2018-05-21T00:33:44.976Z,83.10
2018-05-21T00:36:11.991Z,83.60
2018-05-21T00:38:39.008Z,83.50
2018-05-21T00:41:06.764Z,84.00
2018-05-21T00:43:34.571Z,84.10
2018-05-21T00:46:01.592Z,84.00
2018-05-21T00:48:29.344Z,84.10
2018-05-21T00:50:57.107Z,84.10
2018-05-21T00:53:24.196Z,84.00
2018-05-21T00:55:51.185Z,83.80
2018-05-21T00:58:18.208Z,83.60
2018-05-21T01:00:45.216Z,83.70
2018-05-21T01:03:13.001Z,83.80
2018-05-21T01:05:40.024Z,83.80
2018-05-21T01:08:07.780Z,83.10
2018-05-21T01:10:34.831Z,83.10
2018-05-21T01:13:02.701Z,83.90
2018-05-21T01:15:29.725Z,83.70
2018-05-21T01:17:56.725Z,83.60
2018-05-21T01:20:23.735Z,83.50
2018-05-21T01:22:50.828Z,83.30
2018-05-21T01:25:17.845Z,84.10
2018-05-21T01:27:45.568Z,83.70
2018-05-21T01:30:12.566Z,83.60
2018-05-21T01:32:39.632Z,83.80
2018-05-21T01:35:06.661Z,84.10
2018-05-21T01:37:33.640Z,84.30
2018-05-21T01:40:00.669Z,84.10
2018-05-21T01:42:27.799Z,84.10
2018-05-21T01:44:54.821Z,84.60
2018-05-21T01:47:22.561Z,84.40
2018-05-21T01:49:49.571Z,84.50
2018-05-21T01:52:16.609Z,83.80
2018-05-21T01:54:43.633Z,84.40
2018-05-21T01:57:10.668Z,84.40
2018-05-21T01:59:38.412Z,84.50
2018-05-21T02:02:05.415Z,84.40
2018-05-21T02:04:32.439Z,84.30
2018-05-21T02:07:00.176Z,83.80
2018-05-21T02:09:27.219Z,83.70
2018-05-21T02:11:54.987Z,84.70
2018-05-21T02:14:22.181Z,83.90
2018-05-21T02:16:49.204Z,84.20
2018-05-21T02:19:16.189Z,83.90
2018-05-21T02:21:43.221Z,84.20
2018-05-21T02:24:10.296Z,84.20
2018-05-21T02:26:37.320Z,84.50
2018-05-21T02:29:04.372Z,84.80
2018-05-21T02:31:31.385Z,85.10
2018-05-21T02:33:58.479Z,85.00
2018-05-21T02:36:25.469Z,84.50
2018-05-21T02:38:53.268Z,84.00
2018-05-21T02:41:20.285Z,84.00
2018-05-21T02:43:47.391Z,83.70
2018-05-21T02:46:14.442Z,83.80
2018-05-21T02:48:41.456Z,83.80
2018-05-21T02:51:08.488Z,84.20
2018-05-21T02:53:36.281Z,84.60
2018-05-21T02:56:03.516Z,84.60
2018-05-21T02:58:30.617Z,84.50
2018-05-21T03:00:57.637Z,84.90
2018-05-21T03:03:24.677Z,84.90
2018-05-21T03:05:51.691Z,84.60
2018-05-21T03:08:19.456Z,84.40
2018-05-21T03:10:47.213Z,84.10
2018-05-21T03:13:14.297Z,84.00
2018-05-21T03:15:41.329Z,83.90
2018-05-21T03:18:09.052Z,83.60
2018-05-21T03:20:36.120Z,83.50
2018-05-21T03:23:03.923Z,84.00
2018-05-21T03:25:30.922Z,83.90
2018-05-21T03:27:58.674Z,83.50
2018-05-21T03:30:25.636Z,83.60
2018-05-21T03:32:53.473Z,83.50
2018-05-21T03:35:20.503Z,83.50
2018-05-21T03:37:47.504Z,83.90
2018-05-21T03:40:15.264Z,83.90
2018-05-21T03:42:43.073Z,84.00
2018-05-21T03:45:10.216Z,84.00
2018-05-21T03:47:37.221Z,84.10
2018-05-21T03:50:04.228Z,84.40
2018-05-21T03:52:31.368Z,84.50
2018-05-21T03:54:58.427Z,84.10
2018-05-21T03:57:25.460Z,84.10
2018-05-21T04:00:11.019Z,84.10
2018-05-21T04:02:56.536Z,84.30
2018-05-21T04:05:23.592Z,84.20
2018-05-21T04:07:50.615Z,84.30
2018-05-21T04:10:17.619Z,84.40
2018-05-21T04:12:44.703Z,84.10
2018-05-21T04:15:11.746Z,84.10
2018-05-21T04:17:38.750Z,83.80
2018-05-21T04:20:06.502Z,83.50
2018-05-21T04:22:34.336Z,84.10
2018-05-21T04:25:01.357Z,83.60
2018-05-21T04:27:28.379Z,84.30
2018-05-21T04:29:56.187Z,83.60
2018-05-21T04:32:23.229Z,83.60
2018-05-21T04:34:50.273Z,84.10
2018-05-21T04:37:17.308Z,83.70
2018-05-21T04:39:44.323Z,83.70
2018-05-21T04:42:11.312Z,83.20
2018-05-21T04:44:38.384Z,82.40
2018-05-21T04:47:05.413Z,82.70
2018-05-21T04:49:32.405Z,82.60
2018-05-21T04:51:59.427Z,82.90
2018-05-21T04:54:26.528Z,82.40
2018-05-21T04:56:53.547Z,83.20
2018-05-21T04:59:20.559Z,82.20
2018-05-21T05:01:47.609Z,82.20
2018-05-21T05:04:14.657Z,82.50
2018-05-21T05:06:41.699Z,82.40
2018-05-21T05:09:08.684Z,82.20
2018-05-21T05:11:35.784Z,81.60
2018-05-21T05:14:03.243Z,82.40
2018-05-21T05:16:30.456Z,81.80
2018-05-21T05:18:58.184Z,82.10
2018-05-21T05:21:26.197Z,81.40
2018-05-21T05:23:53.585Z,81.40
2018-05-21T05:26:20.981Z,80.90
2018-05-21T05:28:48.758Z,80.60
2018-05-21T05:31:16.104Z,80.70
2018-05-21T05:33:43.350Z,80.30
2018-05-21T05:36:11.137Z,79.90
2018-05-21T05:38:38.955Z,80.30
2018-05-21T05:41:06.705Z,80.00
2018-05-21T05:43:33.774Z,80.50
2018-05-21T05:46:01.285Z,79.70
2018-05-21T05:48:29.305Z,80.40
2018-05-21T05:50:56.576Z,80.30
2018-05-21T05:53:23.854Z,79.60
2018-05-21T05:55:51.062Z,80.00
2018-05-21T05:58:18.222Z,80.00
2018-05-21T06:00:45.296Z,79.90
2018-05-21T06:03:13.109Z,80.10
2018-05-21T06:05:40.141Z,80.10
2018-05-21T06:08:07.157Z,79.60
2018-05-21T06:10:34.179Z,79.70
2018-05-21T06:13:01.334Z,79.80
2018-05-21T06:15:28.472Z,79.50
2018-05-21T06:17:55.482Z,79.80
2018-05-21T06:20:22.536Z,79.70
2018-05-21T06:22:49.604Z,79.60
2018-05-21T06:25:16.645Z,79.20
2018-05-21T06:27:43.676Z,79.30
2018-05-21T06:30:11.008Z,79.00
2018-05-21T06:32:38.089Z,78.80
2018-05-21T06:35:05.119Z,79.30
2018-05-21T06:37:32.120Z,77.80
2018-05-21T06:39:59.916Z,76.20
2018-05-21T06:42:27.889Z,77.00
2018-05-21T06:44:54.949Z,77.00
2018-05-21T06:47:21.987Z,76.40
2018-05-21T06:49:49.000Z,75.20
2018-05-21T06:52:16.319Z,75.40
2018-05-21T06:54:43.408Z,74.10
2018-05-21T06:57:11.415Z,74.20
2018-05-21T06:59:38.600Z,74.10
2018-05-21T07:02:05.609Z,73.50
2018-05-21T07:04:32.700Z,73.10
2018-05-21T07:06:59.876Z,72.90
2018-05-21T07:09:27.663Z,72.30
2018-05-21T07:11:54.710Z,72.30
2018-05-21T07:14:21.821Z,71.30
2018-05-21T07:16:48.839Z,71.80
2018-05-21T07:19:15.853Z,72.70
2018-05-21T07:21:43.180Z,72.60
2018-05-21T07:24:10.292Z,72.60
2018-05-21T07:26:37.341Z,72.20
2018-05-21T07:29:04.630Z,71.80
2018-05-21T07:31:31.759Z,72.20
2018-05-21T07:33:58.797Z,70.90
2018-05-21T07:36:25.841Z,71.20
2018-05-21T07:38:53.110Z,70.20
2018-05-21T07:41:20.131Z,71.00
2018-05-21T07:43:47.168Z,70.60
2018-05-21T07:46:14.205Z,71.30
2018-05-21T07:48:41.369Z,71.10
2018-05-21T07:51:08.499Z,69.50
2018-05-21T07:53:35.641Z,70.00
2018-05-21T07:56:03.420Z,70.00
2018-05-21T07:58:30.455Z,70.00
2018-05-21T08:00:57.477Z,69.80
2018-05-21T08:03:25.446Z,67.60
2018-05-21T08:05:53.209Z,68.00
2018-05-21T08:08:20.265Z,68.00
2018-05-21T08:10:47.515Z,69.60
2018-05-21T08:13:14.615Z,67.60
2018-05-21T08:15:41.680Z,66.60
2018-05-21T08:18:08.760Z,67.40
2018-05-21T08:20:36.536Z,67.60
2018-05-21T08:23:03.636Z,66.60
2018-05-21T08:25:30.633Z,67.20
2018-05-21T08:27:57.664Z,64.40
2018-05-21T08:30:25.445Z,65.10
2018-05-21T08:32:52.535Z,65.00
2018-05-21T08:35:19.840Z,66.00
2018-05-21T08:37:47.776Z,66.20
2018-05-21T08:40:14.830Z,65.40
2018-05-21T08:42:41.960Z,64.60
2018-05-21T08:45:09.313Z,66.10
2018-05-21T08:47:36.401Z,66.40
2018-05-21T08:50:04.178Z,64.90
2018-05-21T08:52:31.996Z,66.00
2018-05-21T08:54:58.993Z,66.00
2018-05-21T08:57:25.990Z,66.90
2018-05-21T08:59:53.085Z,65.20
2018-05-21T09:02:20.164Z,66.00
2018-05-21T09:04:47.253Z,64.40
2018-05-21T09:07:14.430Z,66.70
2018-05-21T09:09:41.467Z,66.20
2018-05-21T09:12:09.281Z,66.00
2018-05-21T09:14:36.441Z,66.00
2018-05-21T09:17:03.617Z,65.80
2018-05-21T09:19:31.545Z,67.20
2018-05-21T09:21:58.598Z,66.40
2018-05-21T09:24:25.645Z,65.80
2018-05-21T09:26:52.653Z,65.60
2018-05-21T09:29:22.557Z,66.40
2018-05-21T09:31:49.597Z,66.50
2018-05-21T09:34:17.560Z,65.40
2018-05-21T09:36:44.655Z,65.30
2018-05-21T09:39:11.740Z,63.20
2018-05-21T09:41:38.779Z,64.50
2018-05-21T09:44:06.804Z,62.90
2018-05-21T09:46:33.864Z,62.90
2018-05-21T09:49:01.015Z,62.10
2018-05-21T09:51:28.012Z,61.20
2018-05-21T09:53:55.196Z,64.20
2018-05-21T09:56:22.913Z,63.60
2018-05-21T09:58:49.955Z,63.60
2018-05-21T10:01:16.973Z,62.00
2018-05-21T10:03:44.165Z,64.20
2018-05-21T10:06:11.964Z,62.60
2018-05-21T10:08:39.008Z,62.60
2018-05-21T10:11:06.764Z,62.50
2018-05-21T10:13:34.693Z,66.70
2018-05-21T10:16:02.530Z,64.70
2018-05-21T10:18:29.564Z,64.70
2018-05-21T10:20:56.589Z,64.30
2018-05-21T10:23:23.905Z,63.30
2018-05-21T10:25:50.973Z,63.20
2018-05-21T10:28:17.980Z,63.80
2018-05-21T10:30:45.039Z,62.50
2018-05-21T10:33:12.097Z,63.50
2018-05-21T10:35:39.113Z,62.50
2018-05-21T10:38:06.424Z,61.00
2018-05-21T10:40:33.651Z,61.60
2018-05-21T10:43:00.744Z,63.90
2018-05-21T10:45:27.804Z,63.20
2018-05-21T10:47:54.804Z,63.60
2018-05-21T10:50:21.866Z,63.70
2018-05-21T10:52:49.166Z,63.20
2018-05-21T10:55:16.200Z,65.60
2018-05-21T10:57:43.344Z,62.60
2018-05-21T11:00:10.291Z,61.40
2018-05-21T11:02:37.565Z,60.90
2018-05-21T11:05:04.601Z,61.20
2018-05-21T11:07:32.550Z,58.60
2018-05-21T11:09:59.793Z,58.70
2018-05-21T11:12:26.971Z,59.60
2018-05-21T11:14:54.876Z,60.00
2018-05-21T11:17:22.049Z,59.90
2018-05-21T11:19:49.109Z,60.30
2018-05-21T11:22:16.875Z,58.70
2018-05-21T11:24:44.671Z,58.40
2018-05-21T11:27:11.670Z,58.30
2018-05-21T11:29:39.664Z,60.40
2018-05-21T11:32:06.759Z,57.10
2018-05-21T11:34:34.880Z,57.90
2018-05-21T11:37:02.456Z,59.10
2018-05-21T11:39:30.211Z,59.60
2018-05-21T11:41:57.247Z,59.40
2018-05-21T11:44:25.059Z,57.80
2018-05-21T11:46:52.249Z,57.80
2018-05-21T11:49:19.248Z,57.00
2018-05-21T11:51:46.258Z,58.10
2018-05-21T11:54:14.084Z,59.70
2018-05-21T11:56:41.108Z,59.80
2018-05-21T11:59:08.868Z,58.80
2018-05-21T12:01:36.705Z,58.10
2018-05-21T12:04:03.815Z,58.00
2018-05-21T12:06:30.851Z,58.70
2018-05-21T12:08:57.840Z,57.90
2018-05-21T12:11:25.669Z,53.80
2018-05-21T12:13:53.956Z,55.40
2018-05-21T12:16:21.115Z,55.40
2018-05-21T12:18:49.025Z,56.50
2018-05-21T12:21:16.273Z,56.40
2018-05-21T12:23:43.490Z,57.20
2018-05-21T12:26:10.623Z,55.90
2018-05-21T12:28:38.997Z,54.50
2018-05-21T12:31:10.107Z,55.50
2018-05-21T12:33:38.086Z,55.10
2018-05-21T12:36:07.694Z,55.20
2018-05-21T12:38:35.516Z,54.70
2018-05-21T12:41:07.347Z,51.10
2018-05-21T12:43:34.584Z,51.80
2018-05-21T12:46:02.474Z,54.40
2018-05-21T12:48:29.702Z,54.40
2018-05-21T12:50:59.862Z,53.90
2018-05-21T12:53:27.290Z,55.50
2018-05-21T12:55:54.442Z,56.50
2018-05-21T12:58:21.604Z,51.90
2018-05-21T13:00:49.469Z,50.20
2018-05-21T13:03:17.401Z,52.70
2018-05-21T13:05:44.494Z,52.60
2018-05-21T13:08:12.532Z,50.80
2018-05-21T13:10:40.531Z,53.50
2018-05-21T13:13:08.380Z,51.90
2018-05-21T13:15:35.397Z,51.80
2018-05-21T13:18:03.152Z,51.00
2018-05-21T13:20:30.896Z,51.90
2018-05-21T13:22:57.988Z,51.90
2018-05-21T13:25:25.027Z,52.80
2018-05-21T13:27:52.044Z,51.60
2018-05-21T13:30:19.801Z,49.40
2018-05-21T13:32:47.608Z,50.10
2018-05-21T13:35:14.644Z,50.10
2018-05-21T13:37:42.372Z,51.20
2018-05-21T13:40:10.184Z,54.70
2018-05-21T13:42:37.234Z,54.60
2018-05-21T13:45:04.281Z,52.60
2018-05-21T13:47:31.301Z,54.20
2018-05-21T13:49:58.348Z,53.40
2018-05-21T13:52:25.548Z,54.80
2018-05-21T13:54:52.520Z,54.10
2018-05-21T13:57:20.280Z,56.20
2018-05-21T13:59:48.099Z,54.60
2018-05-21T14:02:15.345Z,54.50
2018-05-21T14:04:42.352Z,53.90
2018-05-21T14:07:10.112Z,51.30
2018-05-21T14:09:37.971Z,53.70
2018-05-21T14:12:05.012Z,53.70
2018-05-21T14:14:32.124Z,52.20
2018-05-21T14:16:59.193Z,51.70
2018-05-21T14:19:26.213Z,52.30
2018-05-21T14:21:53.224Z,54.20
2018-05-21T14:24:21.028Z,53.80
2018-05-21T14:26:48.068Z,53.80
2018-05-21T14:29:15.056Z,54.90
2018-05-21T14:31:42.084Z,54.80
2018-05-21T14:34:09.175Z,54.50
2018-05-21T14:36:36.344Z,55.70
2018-05-21T14:39:04.953Z,54.00
2018-05-21T14:41:32.364Z,54.00
2018-05-21T14:43:59.456Z,54.60
2018-05-21T14:46:26.468Z,58.30
2018-05-21T14:48:54.010Z,57.90
2018-05-21T14:51:21.816Z,54.20
2018-05-21T14:53:48.876Z,54.80
2018-05-21T14:56:15.900Z,53.30
2018-05-21T14:58:42.904Z,54.00
2018-05-21T15:01:10.505Z,54.30
2018-05-21T15:03:38.012Z,54.60
2018-05-21T15:06:05.008Z,54.90
2018-05-21T15:08:32.045Z,54.30
2018-05-21T15:10:59.176Z,55.70
2018-05-21T15:13:26.268Z,56.40
2018-05-21T15:15:53.305Z,58.10
2018-05-21T15:18:20.324Z,57.90
2018-05-21T15:20:48.512Z,61.70
2018-05-21T15:23:15.716Z,61.70
2018-05-21T15:25:43.017Z,64.00
2018-05-21T15:28:10.871Z,66.00
2018-05-21T15:30:37.895Z,65.90
2018-05-21T15:33:05.722Z,66.90
2018-05-21T15:35:32.729Z,66.90
2018-05-21T15:38:00.508Z,68.90
2018-05-21T15:40:28.288Z,70.40
2018-05-21T15:42:55.337Z,70.30
2018-05-21T15:45:22.304Z,70.60
2018-05-21T15:47:49.311Z,71.20
2018-05-21T15:50:16.320Z,70.90
2018-05-21T15:52:43.447Z,70.90
2018-05-21T15:55:10.512Z,72.00
2018-05-21T15:57:37.970Z,71.30
2018-05-21T16:00:05.017Z,71.90
2018-05-21T16:02:32.160Z,71.90
2018-05-21T16:04:59.188Z,71.00
2018-05-21T16:07:26.238Z,71.90
2018-05-21T16:09:53.957Z,72.50
2018-05-21T16:12:21.892Z,73.00
2018-05-21T16:14:48.893Z,73.00
2018-05-21T16:17:16.636Z,73.00
2018-05-21T16:19:43.640Z,73.00
2018-05-21T16:22:10.687Z,74.00
2018-05-21T16:24:37.725Z,73.80
2018-05-21T16:27:04.744Z,73.60
2018-05-21T16:29:31.779Z,73.80
2018-05-21T16:31:59.536Z,75.40
2018-05-21T16:34:27.643Z,75.40
2018-05-21T16:36:55.469Z,71.40
2018-05-21T16:39:23.240Z,71.10
2018-05-21T16:41:50.436Z,71.00
2018-05-21T16:44:17.745Z,71.40
2018-05-21T16:46:44.820Z,70.10
2018-05-21T16:49:11.896Z,69.90
2018-05-21T16:51:38.937Z,68.00
2018-05-21T16:54:06.008Z,67.90
2018-05-21T16:56:33.826Z,68.60
2018-05-21T16:59:00.824Z,68.60
2018-05-21T17:01:27.973Z,68.50
2018-05-21T17:03:55.106Z,69.10
2018-05-21T17:06:22.144Z,68.40
2018-05-21T17:08:49.147Z,68.80
2018-05-21T17:11:16.229Z,70.50
2018-05-21T17:13:43.610Z,68.90
2018-05-21T17:16:10.633Z,71.10
2018-05-21T17:18:37.663Z,70.40
2018-05-21T17:21:04.684Z,71.40
2018-05-21T17:23:32.484Z,71.50
2018-05-21T17:25:59.495Z,71.40
2018-05-21T17:28:26.530Z,68.00
2018-05-21T17:30:54.308Z,68.20
2018-05-21T17:33:21.389Z,68.20
2018-05-21T17:35:48.469Z,68.30
2018-05-21T17:38:22.524Z,68.20
2018-05-21T17:40:50.300Z,69.90
2018-05-21T17:43:18.120Z,69.90
2018-05-21T17:45:45.136Z,69.80
2018-05-21T17:48:12.129Z,68.80
2018-05-21T17:50:39.176Z,66.20
2018-05-21T17:53:07.253Z,67.10
2018-05-21T17:55:35.117Z,67.00
2018-05-21T17:58:02.895Z,67.70
2018-05-21T18:00:30.124Z,67.60
2018-05-21T18:02:57.224Z,66.70
2018-05-21T18:05:24.223Z,67.80
2018-05-21T18:07:51.250Z,69.70
2018-05-21T18:10:18.292Z,69.80
2018-05-21T18:12:45.627Z,70.40
2018-05-21T18:15:13.011Z,71.00
2018-05-21T18:17:40.016Z,71.80
2018-05-21T18:20:07.057Z,72.70
2018-05-21T18:22:34.141Z,73.00
2018-05-21T18:25:01.176Z,73.00
2018-05-21T18:27:28.349Z,73.40
2018-05-21T18:29:55.405Z,73.90
2018-05-21T18:32:23.191Z,74.00
2018-05-21T18:34:50.180Z,74.10
2018-05-21T18:37:17.337Z,74.60
2018-05-21T18:39:44.362Z,75.10
2018-05-21T18:42:11.514Z,75.60
2018-05-21T18:44:38.578Z,76.00
2018-05-21T18:47:05.658Z,76.20
2018-05-21T18:49:33.231Z,76.40
2018-05-21T18:52:00.252Z,76.60
2018-05-21T18:54:27.273Z,77.90
2018-05-21T18:56:54.292Z,77.30
2018-05-21T18:59:21.309Z,77.10
2018-05-21T19:01:48.306Z,76.90
2018-05-21T19:04:16.441Z,77.00
2018-05-21T19:06:44.184Z,77.10
2018-05-21T19:09:11.209Z,77.10
2018-05-21T19:11:38.210Z,77.60
2018-05-21T19:14:05.343Z,77.80
2018-05-21T19:16:33.195Z,78.80
2018-05-21T19:19:00.192Z,78.80
2018-05-21T19:21:27.222Z,79.00
2018-05-21T19:23:54.296Z,79.00
2018-05-21T19:26:21.333Z,79.00
2018-05-21T19:28:48.344Z,79.20
2018-05-21T19:31:15.338Z,79.70
2018-05-21T19:33:43.128Z,80.10
2018-05-21T19:36:10.969Z,80.20
2018-05-21T19:38:38.106Z,80.50
2018-05-21T19:41:05.093Z,80.60
2018-05-21T19:43:32.212Z,80.40
2018-05-21T19:45:59.311Z,80.40
2018-05-21T19:48:27.060Z,80.80
2018-05-21T19:50:54.151Z,80.70
2018-05-21T19:53:21.228Z,80.80
2018-05-21T19:55:48.224Z,80.70
2018-05-21T19:58:15.279Z,80.80
2018-05-21T20:00:43.018Z,80.80
2018-05-21T20:03:10.040Z,80.80
2018-05-21T20:05:37.072Z,80.80
2018-05-21T20:08:04.126Z,80.60
2018-05-21T20:10:31.128Z,80.10
2018-05-21T20:12:58.208Z,80.50
2018-05-21T20:15:25.216Z,80.80
2018-05-21T20:17:52.510Z,81.90
2018-05-21T20:20:38.159Z,81.70
2018-05-21T20:23:06.228Z,82.80
2018-05-21T20:25:33.232Z,82.80
2018-05-21T20:28:00.248Z,82.70
2018-05-21T20:30:27.634Z,82.80
2018-05-21T20:32:55.038Z,82.60
2018-05-21T20:35:22.804Z,82.60
2018-05-21T20:37:49.896Z,82.60
2018-05-21T20:40:16.888Z,82.40
2018-05-21T20:42:44.084Z,82.40
2018-05-21T20:45:11.127Z,81.60
2018-05-21T20:47:38.104Z,82.20
2018-05-21T20:50:05.163Z,81.90
2018-05-21T20:52:32.273Z,81.30
2018-05-21T20:54:59.992Z,81.70
2018-05-21T20:57:27.752Z,81.60
2018-05-21T20:59:54.764Z,81.60
2018-05-21T21:02:21.788Z,81.90
2018-05-21T21:04:48.780Z,81.90
2018-05-21T21:07:15.772Z,81.60
2018-05-21T21:09:42.776Z,81.90
2018-05-21T21:12:09.781Z,81.90
2018-05-21T21:14:36.844Z,81.70
2018-05-21T21:17:03.863Z,81.60
2018-05-21T21:19:30.860Z,81.70
2018-05-21T21:21:57.868Z,81.90
2018-05-21T21:24:25.009Z,81.90
2018-05-21T21:26:52.784Z,82.60
2018-05-21T21:29:19.772Z,81.70
2018-05-21T21:31:46.768Z,81.90
2018-05-21T21:34:14.540Z,81.60
2018-05-21T21:36:41.539Z,81.60
2018-05-21T21:39:09.319Z,81.70
2018-05-21T21:41:37.056Z,81.60
2018-05-21T21:44:04.192Z,81.60
2018-05-21T21:46:31.228Z,81.50
2018-05-21T21:48:59.335Z,81.60
2018-05-21T21:51:26.336Z,81.80
2018-05-21T21:53:53.368Z,81.90
2018-05-21T21:56:20.384Z,81.90
2018-05-21T21:58:48.125Z,82.10
2018-05-21T22:01:15.105Z,82.10
2018-05-21T22:03:42.179Z,82.50
2018-05-21T22:06:09.897Z,82.40
2018-05-21T22:08:36.924Z,82.30
2018-05-21T22:11:03.968Z,82.70
2018-05-21T22:13:31.068Z,82.70
2018-05-21T22:15:58.813Z,83.10
2018-05-21T22:18:26.556Z,82.90
2018-05-21T22:20:53.566Z,82.80
2018-05-21T22:23:20.601Z,82.80
2018-05-21T22:25:47.676Z,83.00
2018-05-21T22:28:14.709Z,83.20
2018-05-21T22:30:41.700Z,83.10
2018-05-21T22:33:08.832Z,83.10
2018-05-21T22:35:35.827Z,83.30
2018-05-21T22:38:02.895Z,83.30
2018-05-21T22:40:29.913Z,83.40
2018-05-21T22:42:58.424Z,83.30
2018-05-21T22:45:26.147Z,83.30
2018-05-21T22:47:53.880Z,83.30
2018-05-21T22:50:20.959Z,83.30
2018-05-21T22:52:47.936Z,83.20
2018-05-21T22:55:14.959Z,83.20
2018-05-21T22:57:42.692Z,83.20
2018-05-21T23:00:09.821Z,83.20
2018-05-21T23:02:36.852Z,83.20
2018-05-21T23:05:03.849Z,83.10
2018-05-21T23:07:30.856Z,83.00
2018-05-21T23:09:57.837Z,83.10
2018-05-21T23:12:24.800Z,83.00
2018-05-21T23:14:52.644Z,82.60
2018-05-21T23:17:19.620Z,82.60
2018-05-21T23:19:47.360Z,82.90
2018-05-21T23:22:14.335Z,82.90
2018-05-21T23:24:41.388Z,82.90
2018-05-21T23:27:08.401Z,83.60
2018-05-21T23:29:35.396Z,82.90
2018-05-21T23:32:02.405Z,82.90
2018-05-21T23:34:30.203Z,82.80
2018-05-21T23:36:57.201Z,82.80
2018-05-21T23:39:24.186Z,82.80
2018-05-21T23:41:51.180Z,82.80
2018-05-21T23:44:18.329Z,82.70
2018-05-21T23:46:45.324Z,83.30
2018-05-21T23:49:13.060Z,83.30
2018-05-21T23:51:40.060Z,83.30
2018-05-21T23:54:07.092Z,83.20
2018-05-21T23:56:34.288Z,83.20
2018-05-21T23:59:01.271Z,83.40
